Time;durP1;ratioP1;P1;durP2;ratioP2;P2;SDS_P1;SDS_P2;PMS_P1;PMS_P2;Temp;Humidity;BMP_temperature;BMP_pressure;BME280_temperature;BME280_humidity;BME280_pressure;Samples;Min_cycle;Max_cycle;Signal;HPM_P1;HPM_P2
2023/07/03 00:00:18;;;;;;;15.13;10.00;;;14.10;17.40;;;;;;5018824;28;20203;-70
2023/07/03 00:02:51;;;;;;;13.33;9.77;;;14.10;18.00;;;;;;5017898;28;20224;-68
2023/07/03 00:05:17;;;;;;;23.00;11.77;;;14.00;18.60;;;;;;5018577;28;20649;-69
2023/07/03 00:07:42;;;;;;;19.00;11.70;;;14.00;18.70;;;;;;5018573;28;20956;-69
2023/07/03 00:10:08;;;;;;;15.93;11.27;;;14.00;18.90;;;;;;5018424;28;20423;-70
2023/07/03 00:12:34;;;;;;;19.37;12.23;;;14.00;18.50;;;;;;5018089;28;20209;-68
2023/07/03 00:15:00;;;;;;;15.47;10.10;;;13.90;18.90;;;;;;5018053;28;20942;-68
2023/07/03 00:17:26;;;;;;;16.17;10.40;;;13.90;17.90;;;;;;5018281;28;20533;-71
2023/07/03 00:19:52;;;;;;;17.87;12.50;;;13.90;17.40;;;;;;5018495;28;20676;-69
2023/07/03 00:22:17;;;;;;;21.57;11.33;;;13.90;17.00;;;;;;5018027;28;20770;-68
2023/07/03 00:24:43;;;;;;;14.87;9.73;;;13.90;16.80;;;;;;5018377;28;20176;-68
2023/07/03 00:27:08;;;;;;;18.00;11.13;;;13.90;18.40;;;;;;5018178;28;20212;-68
2023/07/03 00:29:34;;;;;;;18.00;10.73;;;13.90;17.60;;;;;;5018399;28;20549;-69
2023/07/03 00:32:00;;;;;;;17.67;10.40;;;13.90;17.40;;;;;;5018111;28;20202;-69
2023/07/03 00:34:27;;;;;;;18.40;11.63;;;13.90;16.80;;;;;;5018293;28;20224;-69
2023/07/03 00:36:53;;;;;;;23.77;13.77;;;13.80;17.20;;;;;;5018384;28;20470;-69
2023/07/03 00:39:19;;;;;;;19.70;11.83;;;13.80;17.00;;;;;;5018077;28;20794;-67
2023/07/03 00:41:44;;;;;;;17.67;10.60;;;13.80;16.70;;;;;;5017575;28;20457;-70
2023/07/03 00:44:12;;;;;;;15.03;11.10;;;13.80;17.40;;;;;;5018271;28;20184;-69
2023/07/03 00:46:43;;;;;;;15.47;10.50;;;13.80;16.80;;;;;;5018282;28;20268;-69
2023/07/03 00:49:10;;;;;;;21.20;10.87;;;13.80;16.70;;;;;;5018166;28;20438;-70
2023/07/03 00:51:37;;;;;;;16.30;10.53;;;13.80;16.70;;;;;;5017498;28;20457;-69
2023/07/03 00:54:03;;;;;;;16.47;11.37;;;13.80;16.60;;;;;;5017994;28;20476;-69
2023/07/03 00:56:28;;;;;;;15.13;10.60;;;13.80;16.20;;;;;;5018111;28;20416;-69
2023/07/03 00:58:54;;;;;;;19.17;10.27;;;13.80;16.30;;;;;;5017925;28;20179;-69
2023/07/03 01:01:34;;;;;;;20.23;12.10;;;13.80;16.70;;;;;;5017904;28;20214;-68
2023/07/03 01:04:34;;;;;;;29.67;11.87;;;13.80;16.20;;;;;;5018213;28;20199;-68
2023/07/03 01:07:10;;;;;;;15.33;10.67;;;13.80;16.10;;;;;;5018099;28;20416;-69
2023/07/03 01:09:47;;;;;;;17.17;12.07;;;13.70;16.30;;;;;;5013569;28;20422;-69
2023/07/03 01:12:14;;;;;;;19.40;11.73;;;13.70;17.30;;;;;;5014550;28;20438;-69
2023/07/03 01:14:43;;;;;;;17.13;10.57;;;13.70;16.60;;;;;;5014833;28;20410;-69
2023/07/03 01:17:10;;;;;;;16.93;10.90;;;13.70;16.10;;;;;;5014806;28;20424;-69
2023/07/03 01:19:38;;;;;;;25.83;13.00;;;13.70;16.40;;;;;;5013401;28;20936;-69
2023/07/03 01:22:07;;;;;;;18.03;10.30;;;13.70;16.60;;;;;;5014157;28;20459;-67
2023/07/03 01:24:47;;;;;;;20.93;12.47;;;13.70;16.60;;;;;;5013442;28;20501;-68
2023/07/03 01:27:16;;;;;;;12.40;8.33;;;13.60;16.50;;;;;;5014798;28;20413;-69
2023/07/03 01:29:43;;;;;;;18.83;9.80;;;13.70;15.60;;;;;;5014566;28;20487;-69
2023/07/03 01:32:11;;;;;;;14.10;11.00;;;13.70;15.50;;;;;;5014050;28;20484;-69
2023/07/03 01:34:43;;;;;;;14.43;10.47;;;13.70;15.90;;;;;;5014347;28;20515;-69
2023/07/03 01:37:10;;;;;;;18.10;10.33;;;13.70;15.50;;;;;;5014311;28;20952;-69
2023/07/03 01:39:37;;;;;;;23.43;11.20;;;13.70;16.50;;;;;;5014407;28;20896;-69
2023/07/03 01:42:03;;;;;;;24.47;11.33;;;13.60;16.10;;;;;;5013894;28;20454;-68
2023/07/03 01:44:29;;;;;;;17.20;10.90;;;13.60;16.10;;;;;;5014358;28;20909;-69
2023/07/03 01:47:03;;;;;;;17.77;10.50;;;13.70;16.20;;;;;;5014066;28;20437;-69
2023/07/03 01:49:28;;;;;;;12.90;9.47;;;13.60;16.20;;;;;;5014497;28;20184;-69
2023/07/03 01:52:06;;;;;;;18.10;10.70;;;13.60;16.60;;;;;;5013968;28;20506;-69
2023/07/03 01:54:42;;;;;;;16.10;10.03;;;13.60;15.60;;;;;;5014240;28;20252;-69
2023/07/03 01:57:10;;;;;;;19.37;10.57;;;13.60;16.50;;;;;;5014152;28;20433;-69
2023/07/03 01:59:37;;;;;;;16.10;11.40;;;13.60;16.50;;;;;;5013989;28;20907;-69
2023/07/03 02:02:15;;;;;;;16.83;10.53;;;13.60;16.50;;;;;;5014088;28;20444;-67
2023/07/03 02:04:42;;;;;;;15.10;9.67;;;13.70;16.20;;;;;;5013685;28;20839;-68
2023/07/03 02:07:10;;;;;;;17.13;10.80;;;13.70;15.80;;;;;;5013809;28;20462;-68
2023/07/03 02:09:37;;;;;;;18.17;10.47;;;13.80;15.40;;;;;;5014349;28;20501;-68
2023/07/03 02:12:06;;;;;;;16.63;9.60;;;13.90;14.80;;;;;;5013491;28;20781;-69
2023/07/03 02:14:34;;;;;;;13.90;9.00;;;14.00;15.00;;;;;;5014195;28;20978;-70
2023/07/03 02:17:01;;;;;;;14.23;10.80;;;14.00;14.30;;;;;;4996681;28;20502;-71
2023/07/03 02:19:28;;;;;;;16.73;11.13;;;14.10;14.00;;;;;;5014715;28;20417;-70
2023/07/03 02:21:55;;;;;;;19.30;11.03;;;14.20;13.60;;;;;;5014512;28;20444;-70
2023/07/03 02:24:21;;;;;;;18.87;11.37;;;14.30;13.30;;;;;;5014682;28;20834;-70
2023/07/03 02:26:47;;;;;;;16.53;10.30;;;14.30;13.10;;;;;;5014057;28;20474;-70
2023/07/03 02:29:13;;;;;;;17.63;11.20;;;14.30;12.70;;;;;;5013542;28;20445;-70
2023/07/03 02:31:38;;;;;;;27.00;11.27;;;14.30;12.60;;;;;;5013568;28;21005;-70
2023/07/03 02:34:04;;;;;;;16.60;10.97;;;14.30;12.60;;;;;;5013730;28;20214;-69
2023/07/03 02:36:33;;;;;;;16.33;10.90;;;14.30;12.60;;;;;;5013870;28;20182;-70
2023/07/03 02:39:01;;;;;;;19.60;10.83;;;14.40;12.70;;;;;;5013314;28;20175;-70
2023/07/03 02:41:27;;;;;;;12.67;9.40;;;14.40;12.30;;;;;;5013078;28;20437;-69
2023/07/03 02:43:52;;;;;;;14.60;9.73;;;14.50;12.10;;;;;;5011961;28;20442;-70
2023/07/03 02:46:18;;;;;;;18.10;11.37;;;14.60;11.70;;;;;;5013263;28;20419;-70
2023/07/03 02:48:44;;;;;;;25.90;10.50;;;14.60;11.80;;;;;;5013278;28;20183;-70
2023/07/03 02:51:09;;;;;;;12.63;9.17;;;14.60;11.60;;;;;;5012863;28;20206;-70
2023/07/03 02:53:35;;;;;;;19.37;10.20;;;14.60;11.70;;;;;;5012565;28;20314;-70
2023/07/03 02:56:00;;;;;;;19.43;11.10;;;14.60;11.60;;;;;;5013037;28;20170;-70
2023/07/03 02:58:26;;;;;;;16.13;9.53;;;14.70;11.40;;;;;;5012991;28;20251;-70
2023/07/03 03:00:53;;;;;;;15.60;10.90;;;14.70;11.00;;;;;;5012995;28;20199;-69
2023/07/03 03:03:19;;;;;;;16.23;10.60;;;14.80;10.70;;;;;;5012305;28;20282;-70
2023/07/03 03:05:44;;;;;;;18.80;9.70;;;14.80;10.30;;;;;;5012781;28;20920;-69
2023/07/03 03:08:11;;;;;;;14.30;9.60;;;14.80;10.30;;;;;;5012823;28;20263;-69
2023/07/03 03:10:37;;;;;;;19.80;10.53;;;14.90;10.10;;;;;;5012744;28;20698;-70
2023/07/03 03:13:02;;;;;;;17.50;8.10;;;15.00;10.30;;;;;;5012219;28;20474;-70
2023/07/03 03:15:30;;;;;;;15.57;10.73;;;15.10;9.90;;;;;;5012635;28;20419;-70
2023/07/03 03:17:56;;;;;;;14.80;7.60;;;15.10;9.50;;;;;;5012743;28;20542;-70
2023/07/03 03:20:21;;;;;;;16.53;10.70;;;15.20;9.60;;;;;;5012693;28;20418;-70
2023/07/03 03:22:47;;;;;;;18.43;10.67;;;15.30;9.40;;;;;;5012267;28;20466;-69
2023/07/03 03:25:12;;;;;;;15.43;10.00;;;15.30;9.60;;;;;;5012431;28;20179;-70
2023/07/03 03:27:38;;;;;;;13.13;10.17;;;15.30;8.90;;;;;;5012505;28;20703;-70
2023/07/03 03:30:04;;;;;;;18.23;10.53;;;15.40;10.00;;;;;;5012566;28;20301;-70
2023/07/03 03:32:29;;;;;;;20.47;11.47;;;15.40;8.90;;;;;;5011464;28;20560;-70
2023/07/03 03:34:55;;;;;;;12.07;9.77;;;15.50;9.00;;;;;;5012244;28;20415;-70
2023/07/03 03:37:21;;;;;;;12.97;9.60;;;15.60;8.30;;;;;;5012342;28;20526;-70
2023/07/03 03:39:46;;;;;;;17.27;9.60;;;15.70;8.30;;;;;;5012664;28;20226;-70
2023/07/03 03:42:12;;;;;;;15.10;10.00;;;15.70;8.00;;;;;;5012176;28;20196;-70
2023/07/03 03:44:38;;;;;;;15.10;9.73;;;15.70;7.90;;;;;;5012271;28;20650;-68
2023/07/03 03:47:05;;;;;;;21.73;11.40;;;15.80;6.90;;;;;;5012179;28;20528;-69
2023/07/03 03:49:31;;;;;;;15.10;10.40;;;15.80;7.60;;;;;;5012317;28;20410;-68
2023/07/03 03:51:56;;;;;;;20.77;11.57;;;15.80;8.60;;;;;;5011808;28;20525;-68
2023/07/03 03:54:22;;;;;;;15.87;11.30;;;15.80;8.70;;;;;;5012267;28;20550;-67
2023/07/03 03:56:48;;;;;;;17.37;12.00;;;15.70;9.10;;;;;;5010775;28;20184;-68
2023/07/03 03:59:13;;;;;;;16.70;11.10;;;15.70;9.10;;;;;;5012189;28;20262;-68
2023/07/03 04:01:39;;;;;;;15.57;9.90;;;15.80;9.20;;;;;;5011619;28;20537;-69
2023/07/03 04:04:05;;;;;;;17.33;9.97;;;15.90;9.30;;;;;;5012114;28;20184;-68
2023/07/03 04:06:31;;;;;;;14.13;9.83;;;15.90;8.70;;;;;;5012078;28;20180;-68
2023/07/03 04:08:59;;;;;;;14.20;9.43;;;16.00;8.60;;;;;;5011893;28;20187;-68
2023/07/03 04:11:26;;;;;;;14.27;10.77;;;16.10;8.20;;;;;;5011852;28;20737;-69
2023/07/03 04:13:51;;;;;;;15.00;8.23;;;16.20;8.10;;;;;;5010592;28;20506;-68
2023/07/03 04:16:17;;;;;;;11.77;8.90;;;16.20;7.80;;;;;;5012212;28;20461;-68
2023/07/03 04:18:42;;;;;;;15.43;9.77;;;16.30;6.60;;;;;;5011636;28;20187;-67
2023/07/03 04:21:08;;;;;;;19.80;10.40;;;16.30;6.00;;;;;;5011611;28;20286;-68
2023/07/03 04:23:33;;;;;;;14.63;8.27;;;16.40;6.20;;;;;;5011666;28;20187;-68
2023/07/03 04:26:00;;;;;;;10.87;7.60;;;16.50;5.20;;;;;;5012036;28;20191;-68
2023/07/03 04:28:26;;;;;;;14.10;10.07;;;16.60;5.20;;;;;;5011882;28;20175;-69
2023/07/03 04:30:51;;;;;;;14.80;8.90;;;16.60;5.20;;;;;;5011816;28;20952;-66
2023/07/03 04:33:17;;;;;;;10.47;8.23;;;16.80;5.40;;;;;;5011426;28;20203;-68
2023/07/03 04:35:44;;;;;;;12.70;8.73;;;16.90;4.80;;;;;;5011752;28;20176;-69
2023/07/03 04:38:09;;;;;;;18.27;9.40;;;17.00;3.40;;;;;;5011530;28;20172;-69
2023/07/03 04:40:36;;;;;;;19.73;8.70;;;17.20;3.30;;;;;;5011725;28;20557;-69
2023/07/03 04:43:01;;;;;;;11.13;8.87;;;17.20;3.00;;;;;;5011427;28;20559;-67
2023/07/03 04:45:29;;;;;;;10.20;8.60;;;17.30;1.70;;;;;;5014876;28;20481;-67
2023/07/03 04:47:55;;;;;;;11.43;8.47;;;17.30;1.80;;;;;;5015264;28;20566;-67
2023/07/03 04:50:24;;;;;;;14.13;8.20;;;17.40;1.50;;;;;;5014819;28;20426;-67
2023/07/03 04:52:51;;;;;;;14.50;8.17;;;17.50;1.20;;;;;;5015105;28;20295;-67
2023/07/03 04:55:17;;;;;;;10.90;8.30;;;17.60;1.00;;;;;;5015258;28;20430;-69
2023/07/03 04:57:43;;;;;;;12.60;9.13;;;17.60;1.00;;;;;;5015078;28;20932;-69
2023/07/03 05:00:15;;;;;;;9.73;8.47;;;17.70;1.00;;;;;;5015347;28;20482;-69
2023/07/03 05:02:45;;;;;;;9.00;8.00;;;17.90;1.00;;;;;;5014769;28;20979;-69
2023/07/03 05:05:12;;;;;;;10.47;8.33;;;18.00;1.00;;;;;;5015341;28;20411;-68
2023/07/03 05:07:42;;;;;;;11.43;8.07;;;18.10;1.00;;;;;;5015105;28;20454;-69
2023/07/03 05:10:09;;;;;;;12.17;8.10;;;18.30;1.00;;;;;;5014965;28;20525;-69
2023/07/03 05:12:35;;;;;;;12.40;7.70;;;18.20;1.00;;;;;;5014500;28;20457;-69
2023/07/03 05:15:01;;;;;;;11.90;7.40;;;18.20;1.00;;;;;;5014804;28;20415;-69
2023/07/03 05:17:27;;;;;;;11.93;8.50;;;18.30;1.00;;;;;;5014175;28;20435;-69
2023/07/03 05:19:52;;;;;;;19.53;9.17;;;18.40;1.00;;;;;;5014837;28;20419;-69
2023/07/03 05:22:18;;;;;;;9.77;7.40;;;18.50;1.00;;;;;;5014370;28;20202;-69
2023/07/03 05:24:43;;;;;;;21.30;10.03;;;18.50;1.00;;;;;;5014790;28;20172;-69
2023/07/03 05:27:09;;;;;;;13.30;7.97;;;18.60;1.00;;;;;;5014403;28;20574;-69
2023/07/03 05:29:34;;;;;;;12.10;8.70;;;18.70;1.00;;;;;;5014497;28;20183;-70
2023/07/03 05:32:01;;;;;;;11.37;7.90;;;18.80;1.00;;;;;;5013889;28;20204;-69
2023/07/03 05:34:27;;;;;;;12.30;8.57;;;18.70;1.00;;;;;;5014367;28;20199;-69
2023/07/03 05:36:53;;;;;;;12.33;8.23;;;18.80;1.00;;;;;;5014309;28;20429;-69
2023/07/03 05:39:19;;;;;;;22.33;9.17;;;18.90;1.00;;;;;;5014436;28;20410;-67
2023/07/03 05:41:44;;;;;;;8.23;6.80;;;19.00;1.00;;;;;;5013683;28;20944;-69
2023/07/03 05:44:10;;;;;;;11.10;7.63;;;19.00;1.00;;;;;;5013962;28;20680;-69
2023/07/03 05:46:35;;;;;;;10.77;7.83;;;19.30;1.00;;;;;;5014254;28;20255;-69
2023/07/03 05:49:01;;;;;;;11.03;6.87;;;19.30;1.00;;;;;;5014214;28;20180;-69
2023/07/03 05:51:26;;;;;;;10.60;8.70;;;19.50;1.00;;;;;;5013723;28;20211;-70
2023/07/03 05:53:53;;;;;;;15.67;8.30;;;19.70;1.00;;;;;;5014799;28;20270;-70
2023/07/03 05:56:19;;;;;;;12.13;7.30;;;19.70;1.00;;;;;;5014273;28;20230;-71
2023/07/03 05:58:44;;;;;;;8.93;8.03;;;19.60;1.00;;;;;;5014364;28;20434;-70
2023/07/03 06:01:10;;;;;;;15.00;8.00;;;19.80;1.00;;;;;;5014002;28;20613;-70
2023/07/03 06:03:35;;;;;;;9.87;7.87;;;20.00;1.00;;;;;;5013665;28;20291;-68
2023/07/03 06:06:04;;;;;;;10.50;7.67;;;20.20;1.00;;;;;;5014052;28;20204;-68
2023/07/03 06:08:30;;;;;;;8.43;6.47;;;20.30;1.00;;;;;;5014088;28;20176;-69
2023/07/03 06:10:56;;;;;;;7.47;6.50;;;20.40;1.00;;;;;;5013975;28;21268;-71
2023/07/03 06:13:22;;;;;;;14.03;7.67;;;20.40;1.00;;;;;;5013639;28;20467;-71
2023/07/03 06:15:48;;;;;;;12.90;7.77;;;20.50;1.00;;;;;;5013564;28;20745;-71
2023/07/03 06:18:14;;;;;;;12.23;7.80;;;20.60;1.00;;;;;;5013683;28;20180;-71
2023/07/03 06:20:40;;;;;;;8.40;7.60;;;20.50;1.00;;;;;;5013396;28;20722;-70
2023/07/03 06:23:05;;;;;;;12.97;8.33;;;20.60;1.00;;;;;;5013491;28;20439;-70
2023/07/03 06:25:31;;;;;;;22.93;9.17;;;20.80;1.00;;;;;;5013486;28;20442;-71
2023/07/03 06:28:00;;;;;;;11.43;8.27;;;21.20;1.00;;;;;;5013500;28;20647;-71
2023/07/03 06:30:25;;;;;;;12.40;8.13;;;21.60;1.00;;;;;;5013538;28;20668;-71
2023/07/03 06:32:51;;;;;;;13.53;8.07;;;21.70;1.00;;;;;;5012899;28;20463;-70
2023/07/03 06:35:17;;;;;;;11.70;9.43;;;21.90;1.00;;;;;;5012742;28;20183;-70
2023/07/03 06:37:43;;;;;;;13.17;8.07;;;21.50;1.00;;;;;;5013319;28;20203;-72
2023/07/03 06:40:12;;;;;;;10.50;7.33;;;21.90;1.00;;;;;;5013106;28;20843;-72
2023/07/03 06:42:38;;;;;;;8.67;7.83;;;21.70;1.00;;;;;;5012353;28;20692;-71
2023/07/03 06:45:04;;;;;;;23.80;11.03;;;22.20;1.00;;;;;;5013142;28;20502;-71
2023/07/03 06:47:30;;;;;;;13.50;8.63;;;22.30;1.00;;;;;;5013066;28;20427;-71
2023/07/03 06:49:56;;;;;;;10.57;8.37;;;21.70;1.00;;;;;;5013169;28;20434;-70
2023/07/03 06:52:21;;;;;;;11.37;8.40;;;21.60;1.00;;;;;;5011176;28;20552;-70
2023/07/03 06:54:47;;;;;;;9.80;8.10;;;21.70;1.00;;;;;;5013111;28;20183;-70
2023/07/03 06:57:13;;;;;;;10.50;7.53;;;21.70;1.00;;;;;;5011891;28;20181;-73
2023/07/03 06:59:38;;;;;;;13.47;8.00;;;21.70;1.00;;;;;;5012930;28;20188;-71
2023/07/03 07:02:06;;;;;;;10.43;7.20;;;22.00;1.00;;;;;;5012223;28;20219;-71
2023/07/03 07:04:32;;;;;;;10.70;8.67;;;22.20;1.00;;;;;;5012997;28;20270;-71
2023/07/03 07:06:57;;;;;;;11.77;8.27;;;21.90;1.00;;;;;;5011820;28;20497;-71
2023/07/03 07:09:23;;;;;;;11.60;8.43;;;22.30;1.00;;;;;;5012845;28;20176;-72
2023/07/03 07:11:49;;;;;;;10.83;7.93;;;22.50;1.00;;;;;;5012488;28;20206;-71
2023/07/03 07:14:14;;;;;;;9.93;7.43;;;22.10;1.00;;;;;;5012573;28;20286;-71
2023/07/03 07:16:42;;;;;;;12.73;8.63;;;21.70;1.00;;;;;;5012664;28;20180;-71
2023/07/03 07:19:09;;;;;;;8.93;7.63;;;21.70;1.00;;;;;;5012502;28;20172;-71
2023/07/03 07:21:38;;;;;;;10.63;8.60;;;21.70;1.00;;;;;;5012059;28;20446;-72
2023/07/03 07:24:24;;;;;;;13.50;9.17;;;21.60;1.00;;;;;;5012800;28;20917;-72
2023/07/03 07:26:54;;;;;;;15.87;7.97;;;22.00;1.00;;;;;;5012958;28;20453;-71
2023/07/03 07:29:20;;;;;;;8.13;7.33;;;22.10;1.00;;;;;;5012837;28;20423;-72
2023/07/03 07:31:46;;;;;;;11.00;9.30;;;22.30;1.00;;;;;;5012112;28;20465;-71
2023/07/03 07:34:12;;;;;;;15.80;7.70;;;22.20;1.00;;;;;;5012820;28;20557;-73
2023/07/03 07:36:38;;;;;;;7.67;6.87;;;22.60;1.00;;;;;;5012925;28;20172;-74
2023/07/03 07:39:04;;;;;;;10.37;8.60;;;22.60;1.00;;;;;;5012544;28;20179;-73
2023/07/03 07:41:31;;;;;;;9.70;6.90;;;22.70;1.00;;;;;;4998403;28;20467;-72
2023/07/03 07:43:58;;;;;;;11.70;9.20;;;23.20;1.00;;;;;;4992353;28;20267;-73
2023/07/03 07:46:27;;;;;;;10.00;9.00;;;23.50;1.00;;;;;;5000077;28;20418;-70
2023/07/03 07:48:53;;;;;;;12.17;8.27;;;23.30;1.00;;;;;;5012832;28;20423;-69
2023/07/03 07:51:19;;;;;;;10.60;7.77;;;23.60;1.00;;;;;;5011977;28;20503;-69
2023/07/03 07:53:44;;;;;;;9.80;7.53;;;23.60;1.00;;;;;;5012642;28;20211;-70
2023/07/03 07:56:10;;;;;;;10.70;7.37;;;23.80;1.00;;;;;;5013395;28;20650;-70
2023/07/03 07:58:37;;;;;;;10.37;7.97;;;23.60;1.00;;;;;;5004093;28;20195;-70
2023/07/03 08:01:03;;;;;;;16.40;8.60;;;24.10;1.00;;;;;;5003427;28;20455;-69
2023/07/03 08:03:29;;;;;;;11.93;8.37;;;24.20;1.00;;;;;;5011947;28;20427;-69
2023/07/03 08:06:03;;;;;;;9.90;7.27;;;26.10;1.00;;;;;;5011894;28;20426;-69
2023/07/03 08:08:30;;;;;;;9.17;8.00;;;26.80;1.00;;;;;;5011045;28;20828;-69
2023/07/03 08:10:58;;;;;;;11.37;8.00;;;25.40;1.00;;;;;;5007181;28;20438;-69
2023/07/03 08:13:24;;;;;;;10.40;8.20;;;24.60;1.00;;;;;;5006585;28;20477;-69
2023/07/03 08:15:51;;;;;;;13.67;8.67;;;25.00;1.00;;;;;;5008112;28;20419;-69
2023/07/03 08:18:17;;;;;;;13.20;8.70;;;24.90;1.00;;;;;;5009153;28;20418;-69
2023/07/03 08:20:44;;;;;;;13.13;9.30;;;25.70;1.00;;;;;;5011061;28;20438;-68
2023/07/03 08:23:10;;;;;;;9.50;7.97;;;26.20;1.00;;;;;;5011605;28;20530;-69
2023/07/03 08:25:36;;;;;;;9.70;8.27;;;25.60;1.00;;;;;;5011261;28;20506;-69
2023/07/03 08:28:01;;;;;;;12.93;7.60;;;26.50;1.00;;;;;;5010625;28;20510;-69
2023/07/03 08:30:28;;;;;;;10.07;7.60;;;26.30;1.00;;;;;;5012196;28;20192;-69
2023/07/03 08:32:53;;;;;;;11.33;8.63;;;25.40;1.00;;;;;;5010811;28;20684;-68
2023/07/03 08:35:19;;;;;;;11.50;8.00;;;25.10;1.00;;;;;;5011488;28;20570;-68
2023/07/03 08:37:44;;;;;;;9.07;7.83;;;24.30;1.00;;;;;;5012076;28;20548;-69
2023/07/03 08:40:15;;;;;;;14.63;8.40;;;23.90;1.00;;;;;;5011003;28;20183;-68
2023/07/03 08:42:55;;;;;;;12.03;7.23;;;23.30;1.00;;;;;;5027959;28;20743;-68
2023/07/03 08:45:28;;;;;;;10.10;7.90;;;22.60;1.00;;;;;;5030449;28;20437;-69
2023/07/03 08:47:56;;;;;;;7.60;6.90;;;22.50;1.00;;;;;;5030311;28;20516;-69
2023/07/03 08:50:23;;;;;;;18.70;8.40;;;22.60;1.00;;;;;;5030625;28;20926;-69
2023/07/03 08:52:57;;;;;;;9.50;8.37;;;23.60;1.00;;;;;;5023958;28;20501;-70
2023/07/03 08:55:34;;;;;;;14.70;9.70;;;25.90;1.00;;;;;;5010850;28;20484;-70
2023/07/03 08:58:01;;;;;;;35.60;16.40;;;27.20;1.00;;;;;;5011290;28;20437;-69
2023/07/03 09:00:28;;;;;;;17.03;8.87;;;26.30;1.00;;;;;;5013364;28;21082;-69
2023/07/03 09:03:05;;;;;;;8.00;7.17;;;25.70;1.00;;;;;;5014938;28;20462;-69
2023/07/03 09:05:51;;;;;;;13.90;7.40;;;25.60;1.00;;;;;;5015168;28;20466;-69
2023/07/03 09:08:27;;;;;;;10.43;7.70;;;25.00;1.00;;;;;;5010329;28;20494;-70
2023/07/03 09:10:55;;;;;;;9.63;8.73;;;24.80;1.00;;;;;;4995163;28;20435;-69
2023/07/03 09:13:32;;;;;;;8.13;5.90;;;24.70;1.00;;;;;;4995318;28;20964;-70
2023/07/03 09:16:11;;;;;;;13.43;8.07;;;24.90;1.00;;;;;;5004362;28;20510;-70
2023/07/03 09:18:42;;;;;;;9.83;8.67;;;25.00;1.00;;;;;;5015058;28;20431;-70
2023/07/03 09:21:08;;;;;;;11.93;7.70;;;26.00;1.00;;;;;;5015021;28;20451;-70
2023/07/03 09:24:09;;;;;;;15.27;8.17;;;25.50;1.00;;;;;;5014125;28;20437;-70
2023/07/03 09:26:43;;;;;;;10.80;8.10;;;25.10;1.00;;;;;;5014820;28;20210;-69
2023/07/03 09:29:11;;;;;;;30.23;15.30;;;24.90;1.00;;;;;;5013884;28;20457;-69
2023/07/03 09:31:37;;;;;;;10.30;7.73;;;24.70;1.00;;;;;;5014004;28;20442;-69
2023/07/03 09:34:03;;;;;;;8.30;7.50;;;24.80;1.00;;;;;;5014403;28;20471;-68
2023/07/03 09:36:37;;;;;;;11.10;8.10;;;25.20;1.00;;;;;;5014470;28;20449;-68
2023/07/03 09:39:11;;;;;;;14.17;8.63;;;25.30;1.00;;;;;;5014312;28;20182;-70
2023/07/03 09:41:38;;;;;;;9.73;6.53;;;24.90;1.00;;;;;;5001553;28;20450;-68
2023/07/03 09:44:11;;;;;;;7.57;6.77;;;24.90;1.00;;;;;;5002305;28;20432;-69
2023/07/03 09:46:38;;;;;;;12.57;7.53;;;25.10;1.00;;;;;;4994250;28;20463;-68
2023/07/03 09:49:06;;;;;;;8.50;6.90;;;25.00;1.00;;;;;;4997031;28;20428;-68
2023/07/03 09:51:33;;;;;;;7.50;6.80;;;24.60;1.00;;;;;;4998422;28;20831;-68
2023/07/03 09:54:06;;;;;;;12.13;8.47;;;24.70;1.00;;;;;;5004983;28;20466;-68
2023/07/03 09:56:32;;;;;;;13.80;8.17;;;24.50;1.00;;;;;;5012628;28;20414;-68
2023/07/03 09:59:03;;;;;;;7.50;6.70;;;24.30;1.00;;;;;;5011006;28;20888;-68
2023/07/03 10:01:32;;;;;;;9.43;8.03;;;24.30;1.00;;;;;;5013887;28;20215;-68
2023/07/03 10:04:17;;;;;;;11.70;7.20;;;24.80;1.00;;;;;;5013662;28;20441;-68
2023/07/03 10:06:58;;;;;;;8.17;7.33;;;25.30;1.00;;;;;;5011104;28;20799;-68
2023/07/03 10:09:28;;;;;;;9.57;6.80;;;25.30;1.00;;;;;;5013775;28;20459;-68
2023/07/03 10:11:54;;;;;;;7.90;6.63;;;25.30;1.00;;;;;;5012941;28;20943;-69
2023/07/03 10:14:38;;;;;;;9.40;7.53;;;24.90;1.00;;;;;;5013307;28;20517;-68
2023/07/03 10:17:12;;;;;;;11.30;7.40;;;24.90;1.00;;;;;;5011720;28;20191;-68
2023/07/03 10:19:46;;;;;;;8.93;7.33;;;25.20;1.00;;;;;;5013615;28;20433;-68
2023/07/03 10:22:14;;;;;;;7.73;7.03;;;24.80;1.00;;;;;;5013247;28;20886;-68
2023/07/03 10:24:40;;;;;;;9.13;7.10;;;24.80;1.00;;;;;;5012636;28;20435;-68
2023/07/03 10:27:07;;;;;;;8.80;7.17;;;25.00;1.00;;;;;;5013447;28;20865;-69
2023/07/03 10:29:39;;;;;;;8.03;6.13;;;25.20;1.00;;;;;;5013419;28;20457;-68
2023/07/03 10:32:06;;;;;;;7.20;6.53;;;25.60;1.00;;;;;;5013025;28;20446;-68
2023/07/03 10:34:50;;;;;;;7.30;6.60;;;25.60;1.00;;;;;;5012984;28;20548;-69
2023/07/03 10:37:19;;;;;;;12.80;7.67;;;25.60;1.00;;;;;;5013132;28;20481;-68
2023/07/03 10:39:52;;;;;;;6.93;6.20;;;25.80;1.00;;;;;;5012120;28;20940;-69
2023/07/03 10:42:41;;;;;;;9.80;6.67;;;25.10;1.00;;;;;;5013922;28;20847;-69
2023/07/03 10:45:10;;;;;;;7.50;6.80;;;25.00;1.00;;;;;;5012909;28;20426;-69
2023/07/03 10:47:59;;;;;;;14.53;7.33;;;24.60;1.00;;;;;;5012951;28;20458;-69
2023/07/03 10:50:31;;;;;;;9.53;6.97;;;25.20;1.00;;;;;;4987872;28;20522;-68
2023/07/03 10:53:06;;;;;;;7.57;6.90;;;25.50;1.00;;;;;;4993536;28;20537;-69
2023/07/03 10:55:58;;;;;;;9.87;5.77;;;25.00;1.00;;;;;;4993302;28;20787;-69
2023/07/03 10:58:54;;;;;;;11.10;7.77;;;24.90;1.00;;;;;;4993555;28;20412;-69
2023/07/03 11:01:39;;;;;;;8.83;6.90;;;24.90;1.00;;;;;;5012402;28;20470;-69
2023/07/03 11:04:32;;;;;;;6.43;5.83;;;24.80;1.00;;;;;;5012785;28;20418;-70
2023/07/03 11:07:14;;;;;;;7.60;5.80;;;24.60;1.00;;;;;;5012800;28;20923;-69
2023/07/03 11:10:09;;;;;;;12.97;6.80;;;24.80;1.00;;;;;;4993461;28;20808;-68
2023/07/03 11:12:56;;;;;;;9.03;6.97;;;25.00;1.00;;;;;;4989375;28;20447;-68
2023/07/03 11:15:46;;;;;;;9.13;6.23;;;24.70;1.00;;;;;;5012862;28;20849;-70
2023/07/03 11:18:30;;;;;;;5.67;5.17;;;25.20;1.00;;;;;;5005417;28;20509;-68
2023/07/03 11:21:10;;;;;;;4.97;4.57;;;25.40;1.00;;;;;;5012554;28;20545;-68
2023/07/03 11:23:59;;;;;;;6.53;6.03;;;25.50;1.00;;;;;;5011141;28;20426;-68
2023/07/03 11:26:41;;;;;;;8.83;5.37;;;25.50;1.00;;;;;;5012739;28;20407;-68
2023/07/03 11:29:10;;;;;;;5.50;5.00;;;25.60;1.00;;;;;;5012453;28;20461;-70
2023/07/03 11:31:38;;;;;;;5.07;4.67;;;24.90;1.00;;;;;;5012393;28;20430;-69
2023/07/03 11:34:06;;;;;;;7.07;4.33;;;25.00;1.00;;;;;;5012545;28;20525;-69
2023/07/03 11:36:47;;;;;;;4.53;4.13;;;25.00;1.00;;;;;;5012602;28;20453;-70
2023/07/03 11:39:20;;;;;;;4.43;4.07;;;25.10;1.00;;;;;;5012739;28;20812;-69
2023/07/03 11:42:10;;;;;;;5.00;4.60;;;25.40;1.00;;;;;;5012345;28;20427;-69
2023/07/03 11:44:56;;;;;;;4.50;4.10;;;25.70;1.00;;;;;;5003213;28;20416;-69
2023/07/03 11:47:28;;;;;;;4.20;3.80;;;25.60;1.00;;;;;;5006128;28;21125;-69
2023/07/03 11:49:59;;;;;;;4.90;4.47;;;25.80;1.00;;;;;;5012319;28;20415;-70
2023/07/03 11:52:29;;;;;;;5.00;4.40;;;26.10;1.00;;;;;;5011489;28;20438;-70
2023/07/03 11:55:11;;;;;;;5.50;4.63;;;26.00;1.00;;;;;;5012075;28;20509;-69
2023/07/03 11:57:45;;;;;;;10.47;5.00;;;25.90;1.00;;;;;;5012399;28;20443;-70
2023/07/03 12:00:24;;;;;;;4.63;4.23;;;25.70;1.00;;;;;;5011846;28;20462;-69
2023/07/03 12:02:54;;;;;;;5.60;4.90;;;25.20;1.00;;;;;;4991923;28;20455;-69
2023/07/03 12:05:42;;;;;;;4.97;4.50;;;25.10;1.00;;;;;;4992418;28;20418;-69
2023/07/03 12:08:40;;;;;;;4.30;4.00;;;25.30;1.00;;;;;;4992512;28;20925;-69
2023/07/03 12:11:06;;;;;;;4.53;4.13;;;25.20;1.00;;;;;;4987242;28;20520;-68
2023/07/03 12:13:51;;;;;;;5.87;5.37;;;24.80;1.00;;;;;;5000639;28;20509;-68
2023/07/03 12:16:29;;;;;;;5.80;5.27;;;24.50;1.00;;;;;;5009780;28;20438;-71
2023/07/03 12:19:04;;;;;;;5.40;4.93;;;24.50;1.00;;;;;;4999601;28;20431;-70
2023/07/03 12:21:41;;;;;;;6.50;5.00;;;24.40;1.00;;;;;;5010809;28;20462;-68
2023/07/03 12:24:22;;;;;;;5.73;4.60;;;24.40;1.00;;;;;;5011659;28;20445;-68
2023/07/03 12:27:03;;;;;;;4.97;4.47;;;24.30;1.00;;;;;;5011467;28;20501;-68
2023/07/03 12:29:32;;;;;;;5.47;4.97;;;24.60;1.00;;;;;;5011841;28;20414;-68
2023/07/03 12:32:10;;;;;;;10.90;5.00;;;24.70;1.00;;;;;;5011379;28;20506;-68
2023/07/03 12:34:39;;;;;;;5.30;4.43;;;25.10;1.00;;;;;;5010460;28;20833;-68
2023/07/03 12:37:20;;;;;;;4.47;4.10;;;25.60;1.00;;;;;;5011827;28;20418;-68
2023/07/03 12:39:47;;;;;;;7.07;5.07;;;25.50;1.00;;;;;;5011560;28;20430;-68
2023/07/03 12:42:22;;;;;;;6.10;4.10;;;25.40;1.00;;;;;;5011437;28;20840;-68
2023/07/03 12:44:49;;;;;;;6.87;4.30;;;25.40;1.00;;;;;;5011543;28;20962;-69
2023/07/03 12:47:16;;;;;;;4.80;4.40;;;25.20;1.00;;;;;;5011516;28;20426;-68
2023/07/03 12:49:55;;;;;;;4.97;4.57;;;25.00;1.00;;;;;;5011649;28;20779;-68
2023/07/03 12:52:21;;;;;;;4.40;3.90;;;24.90;1.00;;;;;;5011336;28;20438;-68
2023/07/03 12:54:47;;;;;;;6.07;4.40;;;25.00;1.00;;;;;;5011622;28;20491;-68
2023/07/03 12:57:13;;;;;;;4.60;4.10;;;25.10;1.00;;;;;;5010454;28;20462;-68